createdAt,value
2023-03-31T00:01:34.376Z,24.98
2023-03-31T00:04:04.924Z,25.38
2023-03-31T00:06:37.948Z,22.53
2023-03-31T00:09:09.590Z,28.20
2023-03-31T00:11:39.253Z,30.88
2023-03-31T00:14:08.380Z,29.10
2023-03-31T00:16:36.910Z,26.23
2023-03-31T00:19:05.826Z,22.07
2023-03-31T00:21:34.709Z,19.67
2023-03-31T00:24:04.724Z,22.63
2023-03-31T00:26:35.030Z,20.75
2023-03-31T00:29:05.707Z,30.08
2023-03-31T00:31:34.230Z,25.53
2023-03-31T00:34:02.167Z,22.10
2023-03-31T00:36:30.024Z,19.08
2023-03-31T00:39:00.252Z,19.30
2023-03-31T00:41:29.029Z,19.80
2023-03-31T00:44:13.063Z,22.87
2023-03-31T00:46:49.773Z,28.13
2023-03-31T00:49:22.881Z,18.65
2023-03-31T00:51:53.981Z,24.92
2023-03-31T00:54:25.982Z,16.67
2023-03-31T00:56:58.457Z,21.00
2023-03-31T00:59:31.121Z,26.70
2023-03-31T01:02:02.699Z,20.98
2023-03-31T01:04:34.578Z,31.45
2023-03-31T01:07:09.234Z,25.58
2023-03-31T01:09:38.979Z,29.10
2023-03-31T01:12:09.615Z,24.90
2023-03-31T01:14:38.949Z,16.13
2023-03-31T01:17:09.732Z,18.48
2023-03-31T01:19:52.436Z,26.05
2023-03-31T01:23:07.145Z,13.73
2023-03-31T01:26:09.247Z,18.25
2023-03-31T01:28:44.513Z,19.42
2023-03-31T01:31:42.836Z,23.48
2023-03-31T01:34:43.135Z,21.23
2023-03-31T01:37:48.419Z,22.80
2023-03-31T01:40:39.306Z,19.20
2023-03-31T01:43:12.519Z,19.05
2023-03-31T01:45:49.809Z,18.98
2023-03-31T01:48:21.344Z,21.98
2023-03-31T01:50:56.495Z,20.07
2023-03-31T01:53:33.521Z,16.90
2023-03-31T01:56:07.695Z,17.73
2023-03-31T01:58:38.702Z,18.98
2023-03-31T02:01:16.392Z,16.35
2023-03-31T02:03:48.872Z,22.43
2023-03-31T02:06:24.472Z,17.15
2023-03-31T02:08:58.153Z,12.32
2023-03-31T02:11:30.807Z,15.07
2023-03-31T02:14:02.825Z,11.75
2023-03-31T02:16:35.658Z,11.93
2023-03-31T02:19:06.060Z,14.90
2023-03-31T02:21:38.054Z,12.45
2023-03-31T02:24:08.906Z,13.88
2023-03-31T02:26:42.637Z,14.20
2023-03-31T02:29:11.156Z,12.00
2023-03-31T02:31:47.491Z,16.08
2023-03-31T02:34:15.848Z,15.63
2023-03-31T02:36:45.385Z,20.00
2023-03-31T02:39:19.101Z,13.63
2023-03-31T02:41:48.541Z,17.67
2023-03-31T02:44:17.866Z,15.00
2023-03-31T02:46:47.013Z,17.00
2023-03-31T02:49:16.552Z,16.13
2023-03-31T02:52:07.458Z,17.00
2023-03-31T02:54:49.461Z,15.10
2023-03-31T02:57:32.842Z,19.95
2023-03-31T03:00:09.576Z,13.13
2023-03-31T03:03:00.425Z,19.17
2023-03-31T03:05:35.708Z,17.00
2023-03-31T03:08:31.127Z,20.03
2023-03-31T03:11:07.791Z,17.00
2023-03-31T03:13:44.971Z,16.60
2023-03-31T03:16:19.922Z,17.63
2023-03-31T03:18:57.030Z,12.32
2023-03-31T03:21:25.025Z,18.73
2023-03-31T03:23:52.983Z,21.13
2023-03-31T03:26:23.778Z,15.07
2023-03-31T03:28:53.336Z,17.10
2023-03-31T03:31:23.926Z,15.65
2023-03-31T03:33:52.118Z,14.53
2023-03-31T03:36:20.405Z,19.58
2023-03-31T03:38:48.305Z,12.80
2023-03-31T03:41:16.278Z,10.07
2023-03-31T03:43:44.122Z,12.85
2023-03-31T03:46:13.203Z,13.87
2023-03-31T03:48:41.089Z,13.57
2023-03-31T03:51:08.925Z,12.77
2023-03-31T03:53:36.759Z,11.35
2023-03-31T03:56:05.033Z,10.60
2023-03-31T03:58:33.042Z,15.17
2023-03-31T04:01:00.802Z,11.75
2023-03-31T04:03:30.065Z,12.40
2023-03-31T04:05:57.906Z,10.23
2023-03-31T04:08:25.999Z,9.38
2023-03-31T04:10:53.803Z,11.50
2023-03-31T04:13:21.880Z,9.05
2023-03-31T04:15:49.846Z,11.52
2023-03-31T04:18:23.025Z,11.48
2023-03-31T04:21:04.034Z,14.93
2023-03-31T04:23:32.425Z,11.63
2023-03-31T04:26:00.327Z,11.90
2023-03-31T04:28:34.726Z,10.35
2023-03-31T04:31:03.637Z,11.73
2023-03-31T04:33:34.117Z,13.50
2023-03-31T04:36:07.255Z,12.50
2023-03-31T04:38:35.392Z,13.85
2023-03-31T04:41:03.319Z,9.57
2023-03-31T04:43:31.176Z,10.00
2023-03-31T04:45:59.058Z,10.63
2023-03-31T04:48:27.006Z,11.67
2023-03-31T04:50:54.746Z,14.13
2023-03-31T04:53:24.183Z,12.45
2023-03-31T04:55:52.178Z,12.15
2023-03-31T04:58:20.352Z,11.88
2023-03-31T05:00:48.212Z,12.87
2023-03-31T05:03:16.209Z,10.77
2023-03-31T05:05:44.036Z,12.93
2023-03-31T05:08:11.938Z,10.20
2023-03-31T05:10:41.090Z,11.02
2023-03-31T05:13:11.032Z,9.37
2023-03-31T05:15:39.466Z,10.23
2023-03-31T05:18:07.507Z,8.32
2023-03-31T05:20:35.450Z,9.77
2023-03-31T05:23:03.290Z,8.13
2023-03-31T05:25:33.042Z,7.83
2023-03-31T05:28:02.491Z,8.55
2023-03-31T05:30:30.778Z,9.15
2023-03-31T05:32:58.662Z,9.57
2023-03-31T05:35:26.581Z,10.27
2023-03-31T05:37:54.472Z,11.30
2023-03-31T05:40:22.330Z,11.85
2023-03-31T05:42:50.179Z,11.00
2023-03-31T05:45:19.529Z,11.50
2023-03-31T05:47:47.388Z,12.02
2023-03-31T05:50:15.266Z,8.97
2023-03-31T05:52:43.106Z,11.23
2023-03-31T05:55:11.600Z,11.55
2023-03-31T05:57:39.456Z,14.10
2023-03-31T06:00:11.347Z,9.52
2023-03-31T06:02:41.057Z,13.13
2023-03-31T06:05:09.692Z,10.77
2023-03-31T06:07:37.707Z,10.23
2023-03-31T06:10:07.982Z,12.50
2023-03-31T06:12:35.936Z,12.70
2023-03-31T06:15:04.251Z,13.43
2023-03-31T06:17:32.130Z,12.18
2023-03-31T06:20:02.927Z,14.80
2023-03-31T06:22:33.824Z,13.30
2023-03-31T06:25:01.928Z,10.52
2023-03-31T06:27:29.773Z,14.83
2023-03-31T06:29:57.590Z,14.05
2023-03-31T06:32:25.870Z,14.50
2023-03-31T06:34:53.803Z,10.45
2023-03-31T06:37:23.047Z,14.50
2023-03-31T06:39:50.834Z,12.70
2023-03-31T06:42:18.723Z,13.27
2023-03-31T06:44:47.308Z,10.65
2023-03-31T06:47:15.155Z,14.10
2023-03-31T06:49:43.095Z,12.30
2023-03-31T06:52:11.256Z,12.87
2023-03-31T06:54:40.513Z,12.27
2023-03-31T06:57:08.754Z,12.35
2023-03-31T06:59:36.631Z,12.65
2023-03-31T07:02:04.575Z,12.25
2023-03-31T07:04:32.398Z,10.27
2023-03-31T07:07:00.465Z,17.15
2023-03-31T07:09:28.406Z,10.55
2023-03-31T07:11:57.671Z,9.65
2023-03-31T07:14:25.856Z,10.65
2023-03-31T07:16:53.990Z,11.07
2023-03-31T07:19:21.894Z,10.63
2023-03-31T07:21:50.033Z,10.00
2023-03-31T07:24:17.846Z,9.75
2023-03-31T07:26:45.732Z,10.60
2023-03-31T07:29:15.303Z,8.50
2023-03-31T07:31:43.164Z,8.25
2023-03-31T07:34:10.932Z,9.23
2023-03-31T07:36:38.759Z,9.52
2023-03-31T07:39:07.283Z,9.70
2023-03-31T07:41:35.140Z,9.47
2023-03-31T07:44:03.291Z,11.57
2023-03-31T07:46:32.712Z,7.47
2023-03-31T07:49:03.098Z,10.45
2023-03-31T07:51:31.112Z,8.68
2023-03-31T07:53:58.994Z,8.07
2023-03-31T07:56:27.168Z,9.20
2023-03-31T07:58:57.609Z,9.68
2023-03-31T08:01:29.473Z,8.05
2023-03-31T08:03:59.136Z,6.35
2023-03-31T08:06:27.593Z,9.43
2023-03-31T08:08:55.546Z,9.32
2023-03-31T08:11:24.300Z,11.30
2023-03-31T08:13:52.217Z,10.57
2023-03-31T08:16:20.171Z,8.75
2023-03-31T08:18:48.149Z,12.83
2023-03-31T08:21:17.368Z,10.77
2023-03-31T08:23:45.305Z,9.05
2023-03-31T08:26:17.755Z,8.23
2023-03-31T08:28:46.293Z,8.00
2023-03-31T08:31:16.548Z,9.17
2023-03-31T08:33:44.624Z,10.18
2023-03-31T08:36:12.996Z,10.60
2023-03-31T08:38:46.125Z,9.70
2023-03-31T08:41:28.708Z,11.77
2023-03-31T08:43:58.180Z,10.90
2023-03-31T08:46:29.114Z,10.05
2023-03-31T08:48:59.582Z,12.80
2023-03-31T08:51:30.370Z,15.95
2023-03-31T08:54:03.729Z,14.70
2023-03-31T08:56:37.843Z,14.00
2023-03-31T08:59:06.942Z,13.25
2023-03-31T09:01:54.506Z,16.27
2023-03-31T09:04:38.935Z,11.35
2023-03-31T09:07:14.704Z,10.80
2023-03-31T09:09:55.566Z,13.90
2023-03-31T09:12:29.578Z,15.35
2023-03-31T09:15:01.360Z,10.57
2023-03-31T09:17:32.576Z,10.10
2023-03-31T09:20:07.991Z,10.82
2023-03-31T09:22:40.827Z,15.57
2023-03-31T09:25:15.174Z,9.38
2023-03-31T09:27:44.899Z,8.30
2023-03-31T09:30:17.903Z,11.82
2023-03-31T09:32:48.504Z,10.48
2023-03-31T09:35:21.892Z,10.70
2023-03-31T09:37:51.257Z,11.65
2023-03-31T09:40:22.496Z,11.07
2023-03-31T09:42:55.816Z,12.02
2023-03-31T09:45:23.697Z,15.27
2023-03-31T09:47:53.599Z,10.70
2023-03-31T09:50:25.394Z,13.05
2023-03-31T09:52:56.256Z,10.85
2023-03-31T09:55:38.939Z,15.50
2023-03-31T09:58:08.836Z,15.20
2023-03-31T10:00:37.262Z,11.03
2023-03-31T10:03:08.259Z,13.60
2023-03-31T10:05:40.087Z,10.13
2023-03-31T10:08:21.985Z,8.90
2023-03-31T10:10:53.905Z,9.95
2023-03-31T10:13:25.429Z,8.83
2023-03-31T10:15:55.033Z,9.35
2023-03-31T10:18:34.323Z,8.75
2023-03-31T10:21:03.886Z,6.70
2023-03-31T10:23:33.740Z,9.43
2023-03-31T10:26:04.770Z,12.60
2023-03-31T10:28:34.538Z,7.18
2023-03-31T10:31:03.509Z,9.20
2023-03-31T10:33:34.934Z,10.27
2023-03-31T10:36:08.460Z,9.77
2023-03-31T10:38:40.093Z,8.07
2023-03-31T10:41:10.633Z,6.80
2023-03-31T10:43:41.993Z,10.27
2023-03-31T10:46:10.648Z,9.18
2023-03-31T10:48:41.402Z,8.52
2023-03-31T10:51:16.127Z,7.60
2023-03-31T10:53:46.219Z,9.98
2023-03-31T10:56:39.258Z,7.20
2023-03-31T10:59:26.041Z,8.77
2023-03-31T11:02:13.614Z,11.40
2023-03-31T11:04:48.349Z,12.07
2023-03-31T11:07:29.544Z,10.65
2023-03-31T11:10:10.664Z,9.82
2023-03-31T11:12:45.360Z,9.10
2023-03-31T11:15:22.964Z,12.40
2023-03-31T11:18:08.024Z,9.70
2023-03-31T11:20:40.675Z,8.57
2023-03-31T11:23:18.461Z,14.82
2023-03-31T11:25:53.609Z,12.30
2023-03-31T11:28:38.142Z,11.80
2023-03-31T11:31:18.455Z,10.17
2023-03-31T11:34:02.640Z,12.65
2023-03-31T11:36:49.526Z,14.93
2023-03-31T11:39:31.665Z,12.50
2023-03-31T11:42:02.388Z,9.45
2023-03-31T11:44:39.246Z,10.03
2023-03-31T11:47:09.969Z,9.25
2023-03-31T11:49:42.546Z,7.85
2023-03-31T11:52:16.289Z,7.55
2023-03-31T11:54:51.596Z,6.72
2023-03-31T11:57:25.290Z,8.90
2023-03-31T11:59:58.400Z,7.45
2023-03-31T12:02:39.692Z,5.38
2023-03-31T12:05:10.797Z,5.30
2023-03-31T12:07:42.457Z,8.57
2023-03-31T12:10:19.262Z,10.47
2023-03-31T12:12:52.822Z,7.63
2023-03-31T12:15:25.124Z,9.32
2023-03-31T12:18:00.380Z,10.13
2023-03-31T12:20:33.210Z,11.10
2023-03-31T12:23:03.660Z,9.70
2023-03-31T12:25:43.536Z,8.60
2023-03-31T12:28:12.281Z,8.07
2023-03-31T12:30:44.278Z,9.90
2023-03-31T12:33:19.573Z,9.57
2023-03-31T12:36:04.691Z,10.77
2023-03-31T12:38:46.424Z,11.25
2023-03-31T12:41:21.183Z,9.57
2023-03-31T12:44:13.602Z,7.25
2023-03-31T12:46:56.259Z,9.43
2023-03-31T12:49:38.726Z,7.23
2023-03-31T12:52:10.000Z,7.78
2023-03-31T12:55:12.247Z,9.35
2023-03-31T12:57:40.239Z,13.38
2023-03-31T13:00:24.921Z,11.95
2023-03-31T13:03:34.025Z,9.43
2023-03-31T13:06:02.590Z,8.13
2023-03-31T13:08:56.686Z,7.15
2023-03-31T13:11:37.778Z,6.88
2023-03-31T13:14:08.152Z,5.80
2023-03-31T13:16:37.268Z,9.47
2023-03-31T13:19:07.015Z,7.88
2023-03-31T13:21:53.861Z,7.13
2023-03-31T13:24:23.715Z,7.25
2023-03-31T13:26:54.853Z,7.80
2023-03-31T13:29:26.402Z,5.73
2023-03-31T13:32:20.394Z,7.38
2023-03-31T13:34:55.649Z,8.45
2023-03-31T13:37:38.685Z,6.95
2023-03-31T13:40:19.694Z,4.93
2023-03-31T13:43:00.829Z,7.40
2023-03-31T13:45:48.891Z,6.20
2023-03-31T13:48:32.063Z,7.13
2023-03-31T13:51:20.632Z,5.75
2023-03-31T13:54:24.136Z,8.85
2023-03-31T13:57:04.799Z,7.63
2023-03-31T13:59:45.622Z,5.95
2023-03-31T14:02:35.857Z,7.35
2023-03-31T14:05:19.767Z,5.68
2023-03-31T14:07:54.995Z,7.38
2023-03-31T14:10:25.314Z,7.20
2023-03-31T14:12:53.273Z,9.32
2023-03-31T14:15:22.593Z,4.65
2023-03-31T14:17:50.507Z,4.15
2023-03-31T14:20:31.839Z,5.28
2023-03-31T14:23:10.893Z,4.23
2023-03-31T14:25:47.346Z,2.75
2023-03-31T14:28:31.967Z,4.10
2023-03-31T14:31:13.609Z,6.05
2023-03-31T14:33:51.842Z,7.63
2023-03-31T14:36:28.483Z,5.03
2023-03-31T14:39:03.528Z,5.88
2023-03-31T14:41:31.388Z,7.95
2023-03-31T14:44:02.839Z,4.90
2023-03-31T14:46:33.788Z,5.55
2023-03-31T14:49:08.486Z,4.77
2023-03-31T14:51:36.434Z,5.63
2023-03-31T14:54:05.869Z,5.43
2023-03-31T14:56:37.392Z,4.80
2023-03-31T14:59:07.622Z,6.55
2023-03-31T15:01:37.982Z,7.07
2023-03-31T15:04:10.499Z,6.40
2023-03-31T15:06:39.996Z,4.60
2023-03-31T15:09:19.845Z,5.50
2023-03-31T15:11:48.415Z,3.88
2023-03-31T15:14:16.372Z,3.83
2023-03-31T15:16:46.040Z,5.90
2023-03-31T15:19:17.458Z,5.28
2023-03-31T15:21:46.326Z,4.63
2023-03-31T15:24:16.048Z,5.13
2023-03-31T15:26:47.985Z,7.93
2023-03-31T15:29:21.243Z,4.20
2023-03-31T15:31:49.832Z,6.80
2023-03-31T15:34:24.656Z,6.55
2023-03-31T15:36:55.380Z,4.88
2023-03-31T15:39:25.372Z,5.93
2023-03-31T15:41:54.392Z,5.10
2023-03-31T15:44:31.075Z,6.78
2023-03-31T15:47:02.566Z,5.00
2023-03-31T15:49:30.904Z,6.32
2023-03-31T15:52:00.562Z,6.63
2023-03-31T15:54:36.922Z,9.07
2023-03-31T15:57:06.298Z,7.43
2023-03-31T15:59:54.688Z,5.93
2023-03-31T16:02:25.395Z,9.27
2023-03-31T16:04:57.496Z,5.83
2023-03-31T16:07:29.361Z,6.32
2023-03-31T16:10:01.363Z,10.60
2023-03-31T16:12:32.463Z,5.38
2023-03-31T16:15:03.912Z,5.47
2023-03-31T16:17:37.193Z,7.80
2023-03-31T16:20:11.041Z,8.57
2023-03-31T16:22:44.526Z,8.32
2023-03-31T16:25:16.981Z,8.98
2023-03-31T16:27:48.968Z,8.38
2023-03-31T16:30:20.602Z,7.17
2023-03-31T16:33:03.099Z,9.77
2023-03-31T16:35:32.829Z,5.75
2023-03-31T16:38:01.809Z,8.43
2023-03-31T16:40:32.917Z,7.65
2023-03-31T16:43:12.834Z,6.77
2023-03-31T16:45:41.649Z,5.38
2023-03-31T16:48:16.073Z,5.40
2023-03-31T16:50:46.467Z,6.50
2023-03-31T16:53:14.748Z,7.55
2023-03-31T16:55:44.361Z,7.80
2023-03-31T16:58:12.661Z,8.85
2023-03-31T17:00:41.933Z,8.48
2023-03-31T17:03:11.764Z,7.05
2023-03-31T17:05:41.282Z,6.22
2023-03-31T17:08:10.117Z,7.27
2023-03-31T17:10:38.472Z,6.05
2023-03-31T17:13:08.537Z,6.90
2023-03-31T17:15:37.720Z,6.43
2023-03-31T17:18:07.277Z,6.93
2023-03-31T17:20:35.658Z,6.97
2023-03-31T17:23:04.355Z,5.10
2023-03-31T17:25:33.028Z,7.68
2023-03-31T17:28:01.866Z,8.55
2023-03-31T17:30:31.757Z,7.70
2023-03-31T17:33:00.219Z,4.23
2023-03-31T17:36:19.918Z,5.45
2023-03-31T17:38:47.898Z,5.90
2023-03-31T17:41:21.240Z,6.65
2023-03-31T17:47:03.860Z,7.07
2023-03-31T17:49:33.308Z,7.35
2023-03-31T17:52:01.526Z,7.35
2023-03-31T17:54:29.423Z,6.90
2023-03-31T17:56:57.409Z,10.20
2023-03-31T17:59:25.411Z,7.13
2023-03-31T18:01:53.326Z,7.45
2023-03-31T18:04:23.800Z,4.82
2023-03-31T18:06:51.671Z,7.28
2023-03-31T18:09:20.424Z,6.22
2023-03-31T18:11:48.413Z,8.40
2023-03-31T18:14:16.169Z,5.22
2023-03-31T18:16:44.076Z,5.55
2023-03-31T18:19:11.853Z,8.55
2023-03-31T18:21:41.188Z,8.30
2023-03-31T18:24:09.160Z,8.57
2023-03-31T18:26:37.231Z,7.32
2023-03-31T18:29:04.960Z,8.20
2023-03-31T18:31:32.897Z,7.95
2023-03-31T18:34:00.876Z,8.10
2023-03-31T18:36:29.803Z,10.03
2023-03-31T18:38:59.030Z,7.47
2023-03-31T18:41:26.839Z,7.50
2023-03-31T18:43:55.084Z,9.00
2023-03-31T18:46:23.039Z,11.23
2023-03-31T18:48:51.353Z,10.07
2023-03-31T18:51:19.246Z,8.68
2023-03-31T18:53:47.397Z,8.55
2023-03-31T18:56:16.829Z,9.80
2023-03-31T18:58:44.813Z,8.40
2023-03-31T19:01:12.686Z,9.03
2023-03-31T19:03:40.525Z,8.75
2023-03-31T19:06:10.936Z,11.30
2023-03-31T19:08:38.906Z,8.55
2023-03-31T19:11:08.881Z,7.80
2023-03-31T19:13:38.885Z,9.03
2023-03-31T19:16:07.686Z,9.25
2023-03-31T19:18:36.516Z,7.65
2023-03-31T19:21:05.132Z,9.48
2023-03-31T19:23:34.783Z,10.13
2023-03-31T19:26:03.174Z,8.27
2023-03-31T19:28:31.499Z,9.55
2023-03-31T19:31:03.669Z,9.10
2023-03-31T19:33:31.611Z,7.30
2023-03-31T19:36:00.295Z,8.60
2023-03-31T19:38:31.914Z,10.33
2023-03-31T19:41:00.000Z,9.20
2023-03-31T19:43:29.434Z,11.50
2023-03-31T19:46:00.627Z,10.63
2023-03-31T19:48:33.565Z,11.32
2023-03-31T19:51:04.056Z,11.13
2023-03-31T19:53:32.337Z,9.98
2023-03-31T19:56:02.869Z,12.10
2023-03-31T19:58:31.244Z,11.88
2023-03-31T20:01:00.440Z,12.65
2023-03-31T20:03:29.018Z,14.70
2023-03-31T20:06:04.012Z,11.75
2023-03-31T20:08:32.486Z,10.60
2023-03-31T20:11:01.842Z,14.32
2023-03-31T20:13:30.149Z,14.85
2023-03-31T20:16:05.887Z,12.47
2023-03-31T20:18:34.569Z,11.55
2023-03-31T20:21:07.928Z,10.40
2023-03-31T20:23:37.961Z,9.13
2023-03-31T20:26:07.933Z,10.18
2023-03-31T20:28:37.786Z,9.40
2023-03-31T20:31:11.728Z,11.52
2023-03-31T20:33:40.038Z,8.68
2023-03-31T20:36:09.589Z,10.77
2023-03-31T20:38:38.282Z,11.13
2023-03-31T20:41:06.643Z,8.17
2023-03-31T20:43:35.612Z,9.75
2023-03-31T20:46:05.365Z,10.80
2023-03-31T20:48:37.651Z,8.85
2023-03-31T20:51:07.539Z,12.23
2023-03-31T20:53:41.630Z,13.03
2023-03-31T20:56:09.837Z,13.95
2023-03-31T20:58:37.729Z,10.85
2023-03-31T21:01:06.103Z,10.45
2023-03-31T21:03:36.197Z,9.07
2023-03-31T21:06:06.282Z,10.00
2023-03-31T21:08:39.994Z,10.40
2023-03-31T21:11:07.912Z,9.38
2023-03-31T21:13:36.006Z,9.77
2023-03-31T21:16:04.772Z,8.85
2023-03-31T21:18:37.329Z,11.63
2023-03-31T21:21:07.194Z,11.93
2023-03-31T21:23:35.699Z,9.52
2023-03-31T21:26:05.703Z,10.18
2023-03-31T21:28:36.262Z,11.43
2023-03-31T21:31:06.231Z,10.50
2023-03-31T21:33:37.700Z,10.73
2023-03-31T21:36:06.539Z,10.43
2023-03-31T21:38:36.124Z,10.50
2023-03-31T21:41:07.269Z,13.13
2023-03-31T21:43:35.090Z,10.27
2023-03-31T21:46:03.179Z,8.43
2023-03-31T21:48:31.288Z,9.90
2023-03-31T21:51:01.499Z,10.07
2023-03-31T21:53:31.167Z,9.77
2023-03-31T21:55:59.169Z,9.97
2023-03-31T21:58:28.932Z,9.95
2023-03-31T22:00:58.162Z,22.58
2023-03-31T22:03:28.754Z,11.55
2023-03-31T22:05:57.225Z,12.40
2023-03-31T22:08:29.633Z,14.57
2023-03-31T22:10:59.944Z,13.40
2023-03-31T22:13:27.877Z,14.23
2023-03-31T22:15:56.169Z,14.10
2023-03-31T22:18:24.754Z,18.77
2023-03-31T22:20:53.581Z,19.70
2023-03-31T22:23:21.435Z,16.33
2023-03-31T22:25:50.813Z,15.55
2023-03-31T22:28:18.951Z,16.05
2023-03-31T22:30:47.110Z,20.10
2023-03-31T22:33:14.906Z,21.97
2023-03-31T22:35:42.741Z,24.88
2023-03-31T22:38:13.358Z,25.55
2023-03-31T22:40:41.355Z,26.08
2023-03-31T22:43:10.822Z,26.70
2023-03-31T22:45:38.915Z,27.73
2023-03-31T22:48:07.725Z,25.33
2023-03-31T22:50:35.661Z,29.95
2023-03-31T22:53:03.392Z,33.22
2023-03-31T22:55:31.441Z,30.65
2023-03-31T22:57:59.393Z,33.23
2023-03-31T23:00:28.547Z,29.63
2023-03-31T23:02:56.449Z,30.33
2023-03-31T23:05:24.446Z,29.10
2023-03-31T23:07:52.373Z,37.63
2023-03-31T23:10:20.395Z,30.00
2023-03-31T23:12:48.302Z,31.40
2023-03-31T23:15:16.197Z,28.95
2023-03-31T23:17:45.401Z,26.48
2023-03-31T23:20:15.586Z,28.13
2023-03-31T23:22:43.396Z,22.90
2023-03-31T23:25:11.550Z,20.92
2023-03-31T23:27:39.429Z,24.25
2023-03-31T23:30:08.499Z,24.80
2023-03-31T23:32:36.759Z,24.95
2023-03-31T23:35:07.905Z,27.67
2023-03-31T23:37:36.113Z,25.00
2023-03-31T23:40:04.655Z,25.92
2023-03-31T23:42:32.522Z,19.48
2023-03-31T23:45:00.527Z,25.83
2023-03-31T23:47:28.606Z,26.23
2023-03-31T23:49:56.888Z,27.23
2023-03-31T23:52:27.281Z,22.83
2023-03-31T23:54:55.139Z,23.02
2023-03-31T23:57:23.072Z,27.80
2023-03-31T23:59:52.423Z,21.27
